Weather at Cancún International Airport

Public forecast

Using degrees Celsius for public forecast. Weather courtesy of forecast.io.

Current aviation weather report (METAR) for Cancún International Airport

Retrieved 2020/09/30 07:46 UTC (1 hour ago):

MMUN 300746Z 29004KT 7SM SCT250 24/23 A2990 RMK 8/008

Aviation forecast (TAF) for Cancún International Airport

Retrieved 2020/09/30 06:07 UTC (3 hours ago):

TAF MMUN 300459Z 3006/0112 00000KT P6SM SCT080 SCT250 TX30/3018Z TN23/3012Z FM301600 08010KT P6SM BKN015 BKN070 BKN250 TEMPO 3018/3022 5SM TSRA BKN015CB OVC070 FM302200 05006KT 5SM RA BKN015 OVC070 FM010200 03005KT 6SM HZ BKN015 BKN070